Time;durP1;ratioP1;P1;durP2;ratioP2;P2;SDS_P1;SDS_P2;PMS_P1;PMS_P2;Temp;Humidity;BMP_temperature;BMP_pressure;BME280_temperature;BME280_humidity;BME280_pressure;Samples;Min_cycle;Max_cycle;Signal;HPM_P1;HPM_P2
2022/01/09 00:01:59;;;;;;;;;;;20.30;26.30;;;;;;494343;241;1139;-76
2022/01/09 00:04:00;;;;;;;;;;;20.00;26.50;;;;;;494386;241;1024;-76
2022/01/09 00:06:02;;;;;;;;;;;20.00;26.50;;;;;;494206;241;2177;-76
2022/01/09 00:08:03;;;;;;;;;;;20.00;26.50;;;;;;494262;241;1076;-76
2022/01/09 00:10:04;;;;;;;;;;;20.10;26.50;;;;;;494269;241;1168;-76
2022/01/09 00:12:06;;;;;;;;;;;20.00;26.50;;;;;;494289;241;1137;-76
2022/01/09 00:14:07;;;;;;;;;;;20.10;26.40;;;;;;494337;241;986;-76
2022/01/09 00:16:08;;;;;;;;;;;19.90;26.50;;;;;;494539;241;1294;-76
2022/01/09 00:18:10;;;;;;;;;;;20.20;26.50;;;;;;494524;241;1148;-76
2022/01/09 00:20:11;;;;;;;;;;;20.00;26.50;;;;;;494326;241;984;-76
2022/01/09 00:22:13;;;;;;;;;;;19.90;26.70;;;;;;494303;241;1362;-76
2022/01/09 00:24:14;;;;;;;;;;;20.10;26.60;;;;;;494325;241;1220;-76
2022/01/09 00:26:15;;;;;;;;;;;20.10;26.50;;;;;;494237;241;2178;-76
2022/01/09 00:28:17;;;;;;;;;;;20.10;26.30;;;;;;494274;241;1120;-76
2022/01/09 00:30:18;;;;;;;;;;;20.20;26.50;;;;;;494284;241;1025;-76
2022/01/09 00:32:19;;;;;;;;;;;20.10;26.40;;;;;;494283;241;1087;-76
2022/01/09 00:34:21;;;;;;;;;;;20.00;26.60;;;;;;494339;241;1013;-76
2022/01/09 00:36:22;;;;;;;;;;;20.40;26.40;;;;;;494350;241;1146;-76
2022/01/09 00:38:23;;;;;;;;;;;20.10;26.30;;;;;;494321;241;1453;-76
2022/01/09 00:40:25;;;;;;;;;;;20.10;26.40;;;;;;494320;241;1037;-76
2022/01/09 00:42:26;;;;;;;;;;;20.50;26.30;;;;;;494372;241;1319;-76
2022/01/09 00:44:27;;;;;;;;;;;20.30;26.40;;;;;;494415;241;1006;-76
2022/01/09 00:46:29;;;;;;;;;;;20.30;26.30;;;;;;494206;241;2190;-76
2022/01/09 00:48:30;;;;;;;;;;;20.30;26.40;;;;;;494353;241;1216;-76
2022/01/09 00:50:31;;;;;;;;;;;20.40;26.20;;;;;;494442;241;1568;-75
2022/01/09 00:52:33;;;;;;;;;;;20.20;26.40;;;;;;494281;241;1199;-76
2022/01/09 00:54:34;;;;;;;;;;;20.30;26.40;;;;;;494348;241;1152;-76
2022/01/09 00:56:35;;;;;;;;;;;20.20;26.40;;;;;;494241;241;1126;-76
2022/01/09 00:58:37;;;;;;;;;;;20.30;26.30;;;;;;494309;241;1221;-76
2022/01/09 01:00:39;;;;;;;;;;;20.30;26.30;;;;;;494473;241;1122;-76
2022/01/09 01:02:40;;;;;;;;;;;20.20;26.40;;;;;;494252;241;1154;-76
2022/01/09 01:04:41;;;;;;;;;;;20.00;26.60;;;;;;494293;241;1115;-76
2022/01/09 01:06:42;;;;;;;;;;;20.20;26.50;;;;;;494388;241;2131;-76
2022/01/09 01:08:43;;;;;;;;;;;20.10;26.50;;;;;;494258;241;1101;-76
2022/01/09 01:10:45;;;;;;;;;;;19.90;26.70;;;;;;494310;241;1244;-76
2022/01/09 01:12:48;;;;;;;;;;;19.90;26.60;;;;;;494292;241;1323;-76
2022/01/09 01:14:48;;;;;;;;;;;20.10;26.50;;;;;;494142;241;1412;-76
2022/01/09 01:16:49;;;;;;;;;;;20.10;26.50;;;;;;494161;241;1056;-76
2022/01/09 01:18:50;;;;;;;;;;;20.20;26.50;;;;;;494327;241;1186;-76
2022/01/09 01:20:52;;;;;;;;;;;20.00;26.50;;;;;;494267;241;1306;-73
2022/01/09 01:22:53;;;;;;;;;;;20.00;26.60;;;;;;494263;241;1161;-73
2022/01/09 01:24:56;;;;;;;;;;;20.00;26.60;;;;;;494345;241;1035;-73
2022/01/09 01:26:56;;;;;;;;;;;20.00;26.60;;;;;;494093;241;2127;-73
2022/01/09 01:28:57;;;;;;;;;;;20.00;26.60;;;;;;494331;241;1059;-73
2022/01/09 01:30:58;;;;;;;;;;;20.00;26.60;;;;;;494278;241;1567;-73
2022/01/09 01:32:59;;;;;;;;;;;20.00;26.60;;;;;;494483;241;1161;-73
2022/01/09 01:35:01;;;;;;;;;;;19.90;26.70;;;;;;494309;241;971;-73
2022/01/09 01:37:02;;;;;;;;;;;20.10;26.50;;;;;;494285;241;1307;-73
2022/01/09 01:39:03;;;;;;;;;;;20.00;26.60;;;;;;494268;241;1394;-73
2022/01/09 01:41:05;;;;;;;;;;;20.00;26.70;;;;;;494268;241;1157;-73
2022/01/09 01:43:06;;;;;;;;;;;20.20;26.50;;;;;;494292;241;1424;-73
2022/01/09 01:45:07;;;;;;;;;;;20.10;26.50;;;;;;494314;241;1016;-73
2022/01/09 01:47:09;;;;;;;;;;;20.00;26.60;;;;;;494125;241;2186;-73
2022/01/09 01:49:11;;;;;;;;;;;20.00;26.60;;;;;;494333;241;1121;-73
2022/01/09 01:51:12;;;;;;;;;;;20.10;26.60;;;;;;494245;241;1411;-73
2022/01/09 01:53:17;;;;;;;;;;;20.00;26.60;;;;;;494272;241;1424;-73
2022/01/09 01:55:15;;;;;;;;;;;20.10;26.60;;;;;;494046;241;1421;-73
2022/01/09 01:57:16;;;;;;;;;;;20.10;26.50;;;;;;494182;241;1160;-73
2022/01/09 01:59:17;;;;;;;;;;;20.00;26.60;;;;;;494377;241;1017;-73
2022/01/09 02:01:18;;;;;;;;;;;20.00;26.50;;;;;;494180;241;1220;-73
2022/01/09 02:03:20;;;;;;;;;;;19.90;26.70;;;;;;494268;241;1175;-73
2022/01/09 02:05:21;;;;;;;;;;;20.00;26.70;;;;;;494282;241;1069;-73
2022/01/09 02:07:22;;;;;;;;;;;20.10;26.60;;;;;;494549;241;2120;-73
2022/01/09 02:09:24;;;;;;;;;;;20.30;26.50;;;;;;494309;241;1225;-73
2022/01/09 02:11:25;;;;;;;;;;;20.40;26.60;;;;;;494266;241;1172;-73
2022/01/09 02:13:26;;;;;;;;;;;20.30;26.50;;;;;;494465;241;1009;-73
2022/01/09 02:15:28;;;;;;;;;;;20.40;26.50;;;;;;494524;241;1064;-73
2022/01/09 02:17:29;;;;;;;;;;;20.40;26.50;;;;;;494141;241;1051;-73
2022/01/09 02:19:30;;;;;;;;;;;20.20;26.60;;;;;;494213;241;1195;-73
2022/01/09 02:21:32;;;;;;;;;;;20.30;26.70;;;;;;494434;241;1216;-73
2022/01/09 02:23:35;;;;;;;;;;;20.50;26.60;;;;;;494253;241;1211;-73
2022/01/09 02:25:34;;;;;;;;;;;20.20;26.70;;;;;;494195;241;1969;-73
2022/01/09 02:27:36;;;;;;;;;;;20.60;26.60;;;;;;494281;241;2194;-73
2022/01/09 02:29:37;;;;;;;;;;;20.30;26.70;;;;;;494462;241;1062;-73
2022/01/09 02:31:38;;;;;;;;;;;20.50;26.70;;;;;;494268;241;1176;-73
2022/01/09 02:33:40;;;;;;;;;;;20.50;26.80;;;;;;494244;241;1167;-73
2022/01/09 02:35:41;;;;;;;;;;;20.40;26.70;;;;;;494416;241;1022;-73
2022/01/09 02:37:42;;;;;;;;;;;20.50;26.70;;;;;;494188;241;1150;-73
2022/01/09 02:39:44;;;;;;;;;;;20.30;26.80;;;;;;494439;241;1077;-73
2022/01/09 02:41:45;;;;;;;;;;;20.30;26.90;;;;;;494212;241;1129;-73
2022/01/09 02:43:46;;;;;;;;;;;20.20;27.00;;;;;;494350;241;1055;-73
2022/01/09 02:45:53;;;;;;;;;;;20.30;27.10;;;;;;494224;241;1208;-73
2022/01/09 02:47:49;;;;;;;;;;;20.10;27.20;;;;;;493780;241;2190;-73
2022/01/09 02:49:53;;;;;;;;;;;20.60;27.10;;;;;;494344;241;1169;-73
2022/01/09 02:51:52;;;;;;;;;;;20.20;27.20;;;;;;494135;241;1335;-73
2022/01/09 02:54:07;;;;;;;;;;;20.20;27.30;;;;;;494244;241;1060;-73
2022/01/09 02:55:54;;;;;;;;;;;20.10;27.50;;;;;;493284;241;1386;-73
2022/01/09 02:57:55;;;;;;;;;;;20.10;27.60;;;;;;494235;241;1101;-73
2022/01/09 02:59:57;;;;;;;;;;;20.00;27.70;;;;;;494310;241;1039;-73
2022/01/09 03:01:58;;;;;;;;;;;20.00;27.70;;;;;;494179;241;1515;-73
2022/01/09 03:04:00;;;;;;;;;;;20.10;27.60;;;;;;494289;241;1117;-73
2022/01/09 03:06:01;;;;;;;;;;;20.30;27.70;;;;;;494372;241;1341;-73
2022/01/09 03:08:02;;;;;;;;;;;20.10;27.80;;;;;;494248;241;2119;-73
2022/01/09 03:10:04;;;;;;;;;;;20.30;27.80;;;;;;494478;241;949;-73
2022/01/09 03:12:05;;;;;;;;;;;20.10;27.80;;;;;;494290;241;1149;-73
2022/01/09 03:14:07;;;;;;;;;;;20.20;27.80;;;;;;494324;241;1027;-73
2022/01/09 03:16:08;;;;;;;;;;;19.90;28.00;;;;;;494262;241;1167;-73
2022/01/09 03:18:10;;;;;;;;;;;19.90;28.10;;;;;;494332;241;1166;-73
2022/01/09 03:20:11;;;;;;;;;;;20.00;28.20;;;;;;494332;241;1540;-73
2022/01/09 03:22:12;;;;;;;;;;;20.00;28.10;;;;;;494177;241;1210;-73
2022/01/09 03:24:13;;;;;;;;;;;20.10;28.10;;;;;;494224;241;1299;-73
2022/01/09 03:26:15;;;;;;;;;;;19.90;28.20;;;;;;494209;241;1188;-73
2022/01/09 03:28:16;;;;;;;;;;;20.20;28.00;;;;;;494333;241;2190;-73
2022/01/09 03:30:17;;;;;;;;;;;20.20;28.10;;;;;;494309;241;1200;-73
2022/01/09 03:32:19;;;;;;;;;;;20.10;28.20;;;;;;494322;241;1121;-73
2022/01/09 03:34:20;;;;;;;;;;;20.30;28.20;;;;;;494318;241;1148;-73
2022/01/09 03:36:21;;;;;;;;;;;20.00;28.30;;;;;;494403;241;1502;-73
2022/01/09 03:38:23;;;;;;;;;;;20.10;28.40;;;;;;494240;241;1056;-73
2022/01/09 03:40:25;;;;;;;;;;;20.00;28.50;;;;;;494377;241;1034;-73
2022/01/09 03:42:26;;;;;;;;;;;20.00;28.50;;;;;;494252;241;1173;-73
2022/01/09 03:44:27;;;;;;;;;;;20.30;28.50;;;;;;494351;241;1101;-73
2022/01/09 03:46:28;;;;;;;;;;;20.20;28.50;;;;;;494014;241;1213;-73
2022/01/09 03:48:31;;;;;;;;;;;20.10;28.50;;;;;;494072;241;2187;-73
2022/01/09 03:50:32;;;;;;;;;;;19.90;28.80;;;;;;494159;241;1379;-74
2022/01/09 03:52:34;;;;;;;;;;;19.90;28.80;;;;;;494146;241;1448;-73
2022/01/09 03:54:36;;;;;;;;;;;19.80;28.90;;;;;;494241;241;1363;-73
2022/01/09 03:56:36;;;;;;;;;;;19.90;28.90;;;;;;494125;241;1340;-73
2022/01/09 03:58:37;;;;;;;;;;;20.00;28.90;;;;;;494266;241;1063;-73
2022/01/09 04:00:38;;;;;;;;;;;20.00;28.90;;;;;;494435;241;1048;-73
2022/01/09 04:02:40;;;;;;;;;;;19.90;28.90;;;;;;494469;241;1100;-73
2022/01/09 04:04:41;;;;;;;;;;;20.00;29.00;;;;;;494324;241;1174;-73
2022/01/09 04:06:46;;;;;;;;;;;19.90;29.00;;;;;;494175;241;2108;-73
2022/01/09 04:08:45;;;;;;;;;;;20.00;29.00;;;;;;494042;241;1459;-73
2022/01/09 04:10:48;;;;;;;;;;;20.00;29.00;;;;;;494274;241;1090;-73
2022/01/09 04:12:50;;;;;;;;;;;19.90;29.00;;;;;;494251;241;1394;-73
2022/01/09 04:14:49;;;;;;;;;;;20.10;29.10;;;;;;494179;241;1241;-73
2022/01/09 04:16:50;;;;;;;;;;;20.00;29.00;;;;;;494250;241;1164;-73
2022/01/09 04:18:52;;;;;;;;;;;20.20;28.80;;;;;;494264;241;1193;-73
2022/01/09 04:20:53;;;;;;;;;;;20.00;29.00;;;;;;494252;241;1178;-73
2022/01/09 04:22:54;;;;;;;;;;;20.20;29.00;;;;;;494358;241;1150;-73
2022/01/09 04:24:55;;;;;;;;;;;20.30;28.90;;;;;;494228;241;1164;-73
2022/01/09 04:26:57;;;;;;;;;;;20.20;28.90;;;;;;494130;241;2198;-73
2022/01/09 04:28:58;;;;;;;;;;;20.10;29.00;;;;;;494204;241;1145;-73
2022/01/09 04:30:59;;;;;;;;;;;19.90;29.20;;;;;;494151;241;1248;-73
2022/01/09 04:33:01;;;;;;;;;;;20.20;29.00;;;;;;494183;241;1262;-73
2022/01/09 04:35:02;;;;;;;;;;;20.00;29.20;;;;;;494305;241;1201;-73
2022/01/09 04:37:04;;;;;;;;;;;20.00;29.20;;;;;;494091;241;1163;-73
2022/01/09 04:39:05;;;;;;;;;;;20.00;29.30;;;;;;494211;241;1166;-73
2022/01/09 04:41:06;;;;;;;;;;;20.00;29.30;;;;;;494275;241;1210;-73
2022/01/09 04:43:10;;;;;;;;;;;20.10;29.30;;;;;;494242;241;1097;-73
2022/01/09 04:45:09;;;;;;;;;;;19.90;29.30;;;;;;494088;241;1338;-73
2022/01/09 04:47:14;;;;;;;;;;;20.00;29.30;;;;;;494232;241;2119;-73
2022/01/09 04:49:12;;;;;;;;;;;20.00;29.40;;;;;;494084;241;1515;-73
2022/01/09 04:51:15;;;;;;;;;;;20.20;29.20;;;;;;494165;241;1170;-73
2022/01/09 04:53:14;;;;;;;;;;;20.10;29.40;;;;;;494180;241;1626;-73
2022/01/09 04:55:16;;;;;;;;;;;19.90;29.60;;;;;;494303;241;940;-73
2022/01/09 04:57:17;;;;;;;;;;;19.60;29.80;;;;;;494496;241;1061;-73
2022/01/09 04:59:18;;;;;;;;;;;19.50;30.00;;;;;;494419;241;1118;-73
2022/01/09 05:01:20;;;;;;;;;;;19.40;30.10;;;;;;494241;241;1141;-73
2022/01/09 05:03:21;;;;;;;;;;;19.30;30.30;;;;;;494206;241;1115;-73
2022/01/09 05:05:22;;;;;;;;;;;19.30;30.40;;;;;;494304;241;1182;-73
2022/01/09 05:07:24;;;;;;;;;;;19.30;30.40;;;;;;494229;241;2194;-73
2022/01/09 05:09:25;;;;;;;;;;;19.20;30.40;;;;;;494337;241;1055;-73
2022/01/09 05:11:26;;;;;;;;;;;19.30;30.40;;;;;;494394;241;1222;-73
2022/01/09 05:13:28;;;;;;;;;;;19.30;30.30;;;;;;494294;241;1124;-73
2022/01/09 05:15:29;;;;;;;;;;;19.20;30.60;;;;;;494377;241;997;-73
2022/01/09 05:17:30;;;;;;;;;;;19.20;30.60;;;;;;494475;241;1095;-73
2022/01/09 05:19:34;;;;;;;;;;;19.20;30.70;;;;;;494416;241;1180;-73
2022/01/09 05:21:33;;;;;;;;;;;19.20;30.60;;;;;;494095;241;1429;-73
2022/01/09 05:23:34;;;;;;;;;;;19.10;30.70;;;;;;494229;241;1063;-73
2022/01/09 05:25:36;;;;;;;;;;;19.10;30.70;;;;;;494275;241;1489;-73
2022/01/09 05:27:37;;;;;;;;;;;19.10;30.70;;;;;;494491;241;2186;-73
2022/01/09 05:29:38;;;;;;;;;;;19.00;30.80;;;;;;494327;241;967;-73
2022/01/09 05:31:40;;;;;;;;;;;19.10;30.80;;;;;;494310;238;1406;-73
2022/01/09 05:33:41;;;;;;;;;;;19.10;30.80;;;;;;494363;241;1082;-73
2022/01/09 05:35:42;;;;;;;;;;;19.00;30.80;;;;;;494346;241;1151;-73
2022/01/09 05:37:43;;;;;;;;;;;19.00;30.80;;;;;;494260;241;1116;-73
2022/01/09 05:39:45;;;;;;;;;;;19.00;30.90;;;;;;494331;241;1032;-73
2022/01/09 05:41:46;;;;;;;;;;;19.10;30.90;;;;;;494302;241;1518;-73
2022/01/09 05:43:48;;;;;;;;;;;19.10;30.90;;;;;;494515;241;962;-73
2022/01/09 05:45:49;;;;;;;;;;;19.20;30.90;;;;;;494354;241;1297;-73
2022/01/09 05:47:50;;;;;;;;;;;19.20;30.80;;;;;;494464;241;2123;-73
2022/01/09 05:49:51;;;;;;;;;;;19.20;30.80;;;;;;494493;241;1296;-73
2022/01/09 05:51:53;;;;;;;;;;;19.20;30.90;;;;;;494410;241;1211;-73
2022/01/09 05:53:54;;;;;;;;;;;19.20;30.90;;;;;;494345;241;1115;-73
2022/01/09 05:55:55;;;;;;;;;;;19.20;31.00;;;;;;494331;241;1082;-73
2022/01/09 05:57:57;;;;;;;;;;;19.30;30.90;;;;;;494283;241;1062;-73
2022/01/09 05:59:58;;;;;;;;;;;19.20;31.00;;;;;;494449;241;1031;-73
2022/01/09 06:01:59;;;;;;;;;;;19.20;31.00;;;;;;494290;241;1104;-73
2022/01/09 06:04:01;;;;;;;;;;;19.20;31.10;;;;;;494301;241;968;-73
2022/01/09 06:06:02;;;;;;;;;;;19.30;31.00;;;;;;494307;241;1255;-73
2022/01/09 06:08:03;;;;;;;;;;;19.20;31.00;;;;;;494183;241;2178;-73
2022/01/09 06:10:05;;;;;;;;;;;19.30;31.00;;;;;;494297;241;1072;-73
2022/01/09 06:12:06;;;;;;;;;;;19.30;31.00;;;;;;494225;241;1091;-73
2022/01/09 06:14:07;;;;;;;;;;;19.30;31.10;;;;;;494291;241;1130;-73
2022/01/09 06:16:09;;;;;;;;;;;19.30;31.10;;;;;;494417;241;1539;-73
2022/01/09 06:18:11;;;;;;;;;;;19.20;31.10;;;;;;494299;241;1152;-73
2022/01/09 06:20:11;;;;;;;;;;;19.20;31.10;;;;;;494362;241;1304;-73
2022/01/09 06:22:17;;;;;;;;;;;19.10;31.30;;;;;;494393;241;1182;-74
2022/01/09 06:24:14;;;;;;;;;;;19.20;31.40;;;;;;493943;241;1447;-73
2022/01/09 06:26:15;;;;;;;;;;;19.20;31.40;;;;;;494313;241;1224;-73
2022/01/09 06:28:17;;;;;;;;;;;19.20;31.40;;;;;;494267;241;2119;-73
2022/01/09 06:30:18;;;;;;;;;;;19.20;31.40;;;;;;494480;241;1014;-73
2022/01/09 06:32:19;;;;;;;;;;;19.10;31.30;;;;;;494314;241;1170;-73
2022/01/09 06:34:20;;;;;;;;;;;19.10;31.40;;;;;;494373;241;1063;-73
2022/01/09 06:36:22;;;;;;;;;;;19.20;31.40;;;;;;494265;241;1358;-73
2022/01/09 06:38:23;;;;;;;;;;;19.10;31.40;;;;;;494211;241;1294;-73
2022/01/09 06:40:25;;;;;;;;;;;19.20;31.40;;;;;;494309;241;1043;-73
2022/01/09 06:42:26;;;;;;;;;;;19.10;31.40;;;;;;494259;241;1062;-73
2022/01/09 06:44:27;;;;;;;;;;;19.10;31.40;;;;;;494306;241;1007;-73
2022/01/09 06:46:29;;;;;;;;;;;19.00;31.50;;;;;;494511;241;1114;-73
2022/01/09 06:48:30;;;;;;;;;;;19.10;31.40;;;;;;494388;241;2178;-73
2022/01/09 06:50:31;;;;;;;;;;;19.70;31.20;;;;;;494299;241;1220;-73
2022/01/09 06:52:33;;;;;;;;;;;19.50;30.90;;;;;;494409;241;1091;-73
2022/01/09 06:54:34;;;;;;;;;;;19.40;31.10;;;;;;494305;241;1065;-73
2022/01/09 06:56:35;;;;;;;;;;;19.30;31.20;;;;;;494422;241;1261;-73
2022/01/09 06:58:37;;;;;;;;;;;19.30;31.20;;;;;;494329;241;981;-73
2022/01/09 07:00:38;;;;;;;;;;;19.30;31.40;;;;;;494303;241;1012;-73
2022/01/09 07:02:40;;;;;;;;;;;19.20;31.50;;;;;;494170;241;1119;-73
2022/01/09 07:04:41;;;;;;;;;;;19.20;31.50;;;;;;494288;241;981;-73
2022/01/09 07:06:42;;;;;;;;;;;19.30;31.40;;;;;;494210;241;1258;-73
2022/01/09 07:08:44;;;;;;;;;;;19.30;31.30;;;;;;494223;241;2194;-73
2022/01/09 07:10:45;;;;;;;;;;;19.20;31.60;;;;;;494281;241;1135;-73
2022/01/09 07:12:47;;;;;;;;;;;19.10;31.60;;;;;;494319;241;1216;-73
2022/01/09 07:14:48;;;;;;;;;;;19.20;31.50;;;;;;494320;241;1008;-73
2022/01/09 07:16:49;;;;;;;;;;;19.10;31.60;;;;;;494299;241;1211;-73
2022/01/09 07:18:51;;;;;;;;;;;19.10;31.80;;;;;;494351;241;1138;-73
2022/01/09 07:20:52;;;;;;;;;;;19.10;31.80;;;;;;494270;241;1242;-73
2022/01/09 07:22:53;;;;;;;;;;;19.10;31.80;;;;;;494218;241;1049;-73
2022/01/09 07:24:55;;;;;;;;;;;19.00;31.70;;;;;;494381;241;1036;-73
2022/01/09 07:26:56;;;;;;;;;;;19.00;31.80;;;;;;494314;241;1201;-73
2022/01/09 07:28:57;;;;;;;;;;;19.00;31.90;;;;;;494468;241;2186;-73
2022/01/09 07:30:59;;;;;;;;;;;19.10;31.80;;;;;;494317;241;1162;-73
2022/01/09 07:33:00;;;;;;;;;;;19.10;31.80;;;;;;494354;241;1205;-73
2022/01/09 07:35:01;;;;;;;;;;;19.10;31.80;;;;;;494295;241;1133;-73
2022/01/09 07:37:02;;;;;;;;;;;19.10;31.80;;;;;;494186;241;1138;-73
2022/01/09 07:39:04;;;;;;;;;;;19.10;31.80;;;;;;494373;241;1094;-73
2022/01/09 07:41:05;;;;;;;;;;;19.10;31.80;;;;;;494230;241;1453;-73
2022/01/09 07:43:06;;;;;;;;;;;19.00;31.80;;;;;;494302;241;1145;-73
2022/01/09 07:45:08;;;;;;;;;;;19.00;31.80;;;;;;494311;241;977;-73
2022/01/09 07:47:09;;;;;;;;;;;19.10;31.80;;;;;;494272;241;1147;-73
2022/01/09 07:49:10;;;;;;;;;;;19.00;31.80;;;;;;494357;241;2189;-73
2022/01/09 07:51:12;;;;;;;;;;;19.10;31.90;;;;;;494201;241;1204;-73
2022/01/09 07:53:15;;;;;;;;;;;19.00;32.00;;;;;;494252;241;1065;-73
2022/01/09 07:55:14;;;;;;;;;;;19.00;31.90;;;;;;494156;241;1451;-73
2022/01/09 07:57:17;;;;;;;;;;;19.10;32.00;;;;;;494365;241;1130;-73
2022/01/09 07:59:17;;;;;;;;;;;19.10;32.00;;;;;;494250;241;1406;-73
2022/01/09 08:01:18;;;;;;;;;;;19.00;32.10;;;;;;494332;241;1225;-73
2022/01/09 08:03:20;;;;;;;;;;;18.90;32.10;;;;;;494245;241;1129;-73
2022/01/09 08:05:21;;;;;;;;;;;18.90;32.10;;;;;;494251;241;1040;-73
2022/01/09 08:07:22;;;;;;;;;;;19.00;32.10;;;;;;494164;241;1124;-73
2022/01/09 08:09:24;;;;;;;;;;;18.90;32.20;;;;;;494422;241;2111;-73
2022/01/09 08:11:25;;;;;;;;;;;19.00;32.20;;;;;;494207;241;1263;-73
2022/01/09 08:13:26;;;;;;;;;;;19.10;32.10;;;;;;494254;241;1027;-73
2022/01/09 08:15:28;;;;;;;;;;;19.00;32.00;;;;;;494259;241;954;-73
2022/01/09 08:17:29;;;;;;;;;;;19.00;32.10;;;;;;494160;241;1069;-73
2022/01/09 08:19:31;;;;;;;;;;;19.00;32.20;;;;;;494305;241;1212;-73
2022/01/09 08:21:32;;;;;;;;;;;19.00;32.20;;;;;;494293;241;1456;-73
2022/01/09 08:23:33;;;;;;;;;;;19.00;32.20;;;;;;494199;241;1084;-73
2022/01/09 08:25:34;;;;;;;;;;;19.00;32.20;;;;;;494364;241;1082;-73
2022/01/09 08:27:36;;;;;;;;;;;19.00;32.30;;;;;;494217;241;1189;-73
2022/01/09 08:29:38;;;;;;;;;;;18.90;32.30;;;;;;494410;241;2123;-73
2022/01/09 08:31:39;;;;;;;;;;;18.90;32.30;;;;;;494219;241;1217;-73
2022/01/09 08:33:40;;;;;;;;;;;19.00;32.40;;;;;;494322;241;1046;-73
2022/01/09 08:35:42;;;;;;;;;;;18.90;32.40;;;;;;494273;241;1193;-73
2022/01/09 08:37:44;;;;;;;;;;;19.00;32.30;;;;;;494254;241;1111;-73
2022/01/09 08:39:45;;;;;;;;;;;19.00;32.30;;;;;;494515;241;1431;-73
2022/01/09 08:41:46;;;;;;;;;;;18.90;32.40;;;;;;494213;241;1299;-73
2022/01/09 08:43:47;;;;;;;;;;;18.90;32.40;;;;;;494280;241;1052;-73
2022/01/09 08:45:49;;;;;;;;;;;19.00;32.50;;;;;;494336;241;1191;-73
2022/01/09 08:47:50;;;;;;;;;;;18.90;32.40;;;;;;494190;241;1240;-73
2022/01/09 08:49:51;;;;;;;;;;;19.00;32.50;;;;;;494365;241;2159;-73
2022/01/09 08:51:54;;;;;;;;;;;18.90;32.50;;;;;;494302;241;1066;-73
2022/01/09 08:53:55;;;;;;;;;;;19.00;32.50;;;;;;494269;241;1449;-73
2022/01/09 08:55:56;;;;;;;;;;;19.00;32.40;;;;;;494293;241;1003;-73
2022/01/09 08:57:57;;;;;;;;;;;19.00;32.40;;;;;;494299;241;1076;-73
2022/01/09 08:59:59;;;;;;;;;;;19.00;32.50;;;;;;494650;241;1157;-73
2022/01/09 09:02:00;;;;;;;;;;;19.00;32.60;;;;;;494185;241;1236;-73
2022/01/09 09:04:01;;;;;;;;;;;18.80;32.60;;;;;;494323;241;1041;-73
2022/01/09 09:06:03;;;;;;;;;;;18.90;32.70;;;;;;494436;241;1129;-73
2022/01/09 09:08:04;;;;;;;;;;;18.90;32.70;;;;;;494239;241;1183;-73
2022/01/09 09:10:05;;;;;;;;;;;18.80;32.90;;;;;;494403;241;2174;-73
2022/01/09 09:12:07;;;;;;;;;;;18.80;33.00;;;;;;494323;241;1201;-73
2022/01/09 09:14:08;;;;;;;;;;;18.80;33.00;;;;;;494410;241;1045;-73
2022/01/09 09:16:10;;;;;;;;;;;18.90;33.00;;;;;;494353;241;1320;-73
2022/01/09 09:18:10;;;;;;;;;;;18.80;33.00;;;;;;494332;241;1118;-73
2022/01/09 09:20:12;;;;;;;;;;;18.80;33.00;;;;;;494625;241;1177;-73
2022/01/09 09:22:13;;;;;;;;;;;18.80;33.00;;;;;;494384;241;1464;-73
2022/01/09 09:24:14;;;;;;;;;;;18.90;33.00;;;;;;494338;241;1310;-73
2022/01/09 09:26:16;;;;;;;;;;;18.90;33.00;;;;;;494214;241;1227;-73
2022/01/09 09:28:18;;;;;;;;;;;18.80;33.00;;;;;;494422;241;1054;-73
2022/01/09 09:30:19;;;;;;;;;;;18.80;33.10;;;;;;494305;241;2115;-73
2022/01/09 09:32:20;;;;;;;;;;;18.80;33.20;;;;;;494226;241;1166;-73
2022/01/09 09:34:21;;;;;;;;;;;18.80;33.20;;;;;;494368;241;1247;-73
2022/01/09 09:36:24;;;;;;;;;;;18.70;33.20;;;;;;494233;241;1231;-74
2022/01/09 09:38:24;;;;;;;;;;;18.70;33.30;;;;;;494278;241;1267;-73
2022/01/09 09:40:26;;;;;;;;;;;18.70;33.20;;;;;;494345;241;1145;-73
2022/01/09 09:42:27;;;;;;;;;;;18.70;33.20;;;;;;494377;241;1172;-73
2022/01/09 09:44:28;;;;;;;;;;;18.80;33.20;;;;;;494287;241;1080;-73
2022/01/09 09:46:30;;;;;;;;;;;18.60;33.20;;;;;;494279;241;1126;-73
2022/01/09 09:48:31;;;;;;;;;;;18.70;33.30;;;;;;494303;241;1045;-73
2022/01/09 09:50:32;;;;;;;;;;;18.70;33.30;;;;;;494326;241;2175;-73
2022/01/09 09:52:34;;;;;;;;;;;18.70;33.20;;;;;;494142;241;1112;-73
2022/01/09 09:54:35;;;;;;;;;;;18.70;33.30;;;;;;494297;241;1021;-73
2022/01/09 09:56:36;;;;;;;;;;;18.70;33.20;;;;;;494357;241;1415;-73
2022/01/09 09:58:38;;;;;;;;;;;18.70;33.30;;;;;;494268;241;1198;-73
2022/01/09 10:00:39;;;;;;;;;;;18.70;33.30;;;;;;494316;241;1295;-73
2022/01/09 10:02:41;;;;;;;;;;;18.70;33.30;;;;;;494322;241;1093;-73
2022/01/09 10:04:42;;;;;;;;;;;18.70;33.20;;;;;;494464;241;1061;-73
2022/01/09 10:06:44;;;;;;;;;;;18.60;33.20;;;;;;494334;241;1307;-73
2022/01/09 10:08:45;;;;;;;;;;;18.70;33.20;;;;;;494329;241;1057;-73
2022/01/09 10:10:46;;;;;;;;;;;18.70;33.20;;;;;;494435;241;2112;-73
2022/01/09 10:12:48;;;;;;;;;;;18.70;33.20;;;;;;494314;241;1411;-73
2022/01/09 10:14:49;;;;;;;;;;;18.70;33.20;;;;;;494299;241;1010;-73
2022/01/09 10:16:50;;;;;;;;;;;18.70;33.20;;;;;;494325;241;1221;-73
2022/01/09 10:18:53;;;;;;;;;;;18.60;33.30;;;;;;494280;241;1148;-73
2022/01/09 10:20:53;;;;;;;;;;;18.70;33.30;;;;;;494170;241;1356;-73
2022/01/09 10:22:54;;;;;;;;;;;18.80;33.20;;;;;;494356;241;1149;-73
2022/01/09 10:24:56;;;;;;;;;;;18.80;33.20;;;;;;494316;241;1116;-73
2022/01/09 10:26:57;;;;;;;;;;;18.80;33.10;;;;;;494423;241;1149;-73
2022/01/09 10:28:59;;;;;;;;;;;18.70;33.10;;;;;;494362;241;2127;-73
2022/01/09 10:31:00;;;;;;;;;;;18.70;33.20;;;;;;494390;241;1311;-73
2022/01/09 10:33:01;;;;;;;;;;;18.70;33.20;;;;;;494263;241;1084;-73
2022/01/09 10:35:03;;;;;;;;;;;18.70;33.30;;;;;;494302;241;1047;-73
2022/01/09 10:37:04;;;;;;;;;;;18.60;33.30;;;;;;494248;241;1189;-73
2022/01/09 10:39:05;;;;;;;;;;;18.60;33.40;;;;;;494306;241;1037;-73
2022/01/09 10:41:07;;;;;;;;;;;18.60;33.30;;;;;;494253;241;1352;-73
2022/01/09 10:43:08;;;;;;;;;;;18.60;33.30;;;;;;494293;241;1178;-73
2022/01/09 10:45:09;;;;;;;;;;;18.60;33.30;;;;;;494399;241;1049;-73
2022/01/09 10:47:14;;;;;;;;;;;18.60;33.40;;;;;;494301;241;1216;-73
2022/01/09 10:49:12;;;;;;;;;;;18.60;33.30;;;;;;494067;241;2171;-73
2022/01/09 10:51:13;;;;;;;;;;;18.70;33.30;;;;;;494372;241;1147;-73
2022/01/09 10:53:15;;;;;;;;;;;18.70;33.30;;;;;;494293;241;1103;-73
2022/01/09 10:55:16;;;;;;;;;;;18.70;33.20;;;;;;494281;241;1134;-73
2022/01/09 10:57:18;;;;;;;;;;;18.70;33.30;;;;;;494300;241;1032;-73
2022/01/09 10:59:19;;;;;;;;;;;18.70;33.20;;;;;;494252;241;1068;-73
2022/01/09 11:01:23;;;;;;;;;;;18.70;33.20;;;;;;494263;241;1187;-73
2022/01/09 11:03:25;;;;;;;;;;;18.70;33.30;;;;;;494332;241;1153;-73
2022/01/09 11:05:26;;;;;;;;;;;18.70;33.20;;;;;;494687;241;1045;-73
2022/01/09 11:07:27;;;;;;;;;;;18.70;33.20;;;;;;494322;241;1319;-73
2022/01/09 11:09:30;;;;;;;;;;;18.70;33.30;;;;;;494234;241;2186;-73
2022/01/09 11:11:34;;;;;;;;;;;18.70;33.30;;;;;;494252;241;1940;-73
2022/01/09 11:13:31;;;;;;;;;;;18.60;33.40;;;;;;494017;241;1335;-73
2022/01/09 11:15:40;;;;;;;;;;;18.60;33.40;;;;;;494285;241;1010;-73
2022/01/09 11:17:34;;;;;;;;;;;18.70;33.40;;;;;;493737;241;1325;-73
2022/01/09 11:19:35;;;;;;;;;;;18.70;33.30;;;;;;494416;241;1084;-73
2022/01/09 11:21:36;;;;;;;;;;;18.70;33.30;;;;;;494222;241;1132;-73
2022/01/09 11:23:38;;;;;;;;;;;18.70;33.30;;;;;;494302;241;1167;-73
2022/01/09 11:25:39;;;;;;;;;;;18.60;33.40;;;;;;494267;241;1176;-73
2022/01/09 11:27:41;;;;;;;;;;;18.60;33.40;;;;;;494402;241;1242;-73
2022/01/09 11:29:42;;;;;;;;;;;18.60;33.30;;;;;;494308;241;2143;-73
2022/01/09 11:31:43;;;;;;;;;;;18.70;33.40;;;;;;494398;241;1576;-73
2022/01/09 11:33:45;;;;;;;;;;;18.70;33.30;;;;;;494269;241;1060;-73
2022/01/09 11:35:46;;;;;;;;;;;18.60;33.30;;;;;;494410;241;1494;-73
2022/01/09 11:37:47;;;;;;;;;;;18.70;33.40;;;;;;494286;241;1127;-73
2022/01/09 11:39:48;;;;;;;;;;;18.70;33.40;;;;;;494368;241;973;-73
2022/01/09 11:41:50;;;;;;;;;;;18.70;33.30;;;;;;494198;241;1477;-73
2022/01/09 11:43:51;;;;;;;;;;;18.70;33.40;;;;;;494383;241;1001;-73
2022/01/09 11:45:52;;;;;;;;;;;18.70;33.30;;;;;;494286;241;1156;-73
2022/01/09 11:47:54;;;;;;;;;;;18.70;33.40;;;;;;494339;241;1130;-73
2022/01/09 11:49:56;;;;;;;;;;;18.70;33.40;;;;;;494392;241;2190;-73
2022/01/09 11:51:57;;;;;;;;;;;18.70;33.30;;;;;;494218;241;1053;-73
2022/01/09 11:53:58;;;;;;;;;;;18.70;33.20;;;;;;494280;241;1216;-73
2022/01/09 11:56:00;;;;;;;;;;;18.70;33.20;;;;;;494288;241;1172;-73
2022/01/09 11:58:03;;;;;;;;;;;18.80;33.20;;;;;;494347;241;1044;-73